Time;durP1;ratioP1;P1;durP2;ratioP2;P2;SDS_P1;SDS_P2;PMS_P1;PMS_P2;Temp;Humidity;BMP_temperature;BMP_pressure;BME280_temperature;BME280_humidity;BME280_pressure;Samples;Min_cycle;Max_cycle;Signal;HPM_P1;HPM_P2
2021/01/30 00:00:11;;;;;;;11.93;3.90;;;-0.20;99.90;;;;;;4892659;28;20509;-87
2021/01/30 00:02:35;;;;;;;11.73;4.40;;;-0.20;99.90;;;;;;4893094;28;20137;-86
2021/01/30 00:05:08;;;;;;;8.15;4.50;;;-0.20;99.90;;;;;;4887388;28;20091;-88
2021/01/30 00:07:41;;;;;;;6.88;3.75;;;-0.20;99.90;;;;;;4899565;28;25763;-87
2021/01/30 00:10:06;;;;;;;8.00;4.20;;;-0.20;99.90;;;;;;4892541;28;20099;-88
2021/01/30 00:12:30;;;;;;;11.00;4.53;;;-0.20;99.90;;;;;;4892456;28;20095;-88
2021/01/30 00:14:55;;;;;;;10.05;5.10;;;-0.20;99.90;;;;;;4884727;28;20150;-87
2021/01/30 00:17:36;;;;;;;8.98;4.68;;;-0.20;99.90;;;;;;4892036;28;20093;-87
2021/01/30 00:19:59;;;;;;;12.07;4.93;;;-0.20;99.90;;;;;;4872830;28;20515;-87
2021/01/30 00:22:26;;;;;;;10.32;5.07;;;-0.20;99.90;;;;;;4882658;28;20091;-86
2021/01/30 00:25:05;;;;;;;15.45;7.40;;;-0.20;99.90;;;;;;4891517;28;20088;-87
2021/01/30 00:27:34;;;;;;;13.45;5.82;;;-0.30;99.90;;;;;;4869934;28;20185;-87
2021/01/30 00:29:56;;;;;;;17.63;6.63;;;-0.30;99.90;;;;;;4885464;28;20179;-86
2021/01/30 00:32:26;;;;;;;14.20;7.35;;;-0.20;99.90;;;;;;4891606;28;20117;-88
2021/01/30 00:34:51;;;;;;;12.68;6.13;;;-0.20;99.90;;;;;;4870042;28;20102;-87
2021/01/30 00:37:25;;;;;;;14.95;6.93;;;-0.30;99.90;;;;;;4878838;28;20120;-86
2021/01/30 00:39:49;;;;;;;13.70;6.90;;;-0.30;99.90;;;;;;4871003;28;20150;-85
2021/01/30 00:42:13;;;;;;;17.50;7.18;;;-0.30;99.90;;;;;;4891901;28;20095;-86
2021/01/30 00:44:42;;;;;;;19.15;6.63;;;-0.30;99.90;;;;;;4895899;28;20087;-86
2021/01/30 00:47:12;;;;;;;13.30;6.15;;;-0.30;99.90;;;;;;4882336;28;20095;-86
2021/01/30 00:49:45;;;;;;;14.13;6.65;;;-0.30;99.90;;;;;;4891763;28;20086;-87
2021/01/30 00:52:13;;;;;;;12.52;6.35;;;-0.30;99.90;;;;;;4888129;28;20084;-86
2021/01/30 00:54:40;;;;;;;16.30;7.47;;;;;;;;;;4879258;28;20152;-86
2021/01/30 00:57:12;;;;;;;15.27;6.63;;;-0.30;99.90;;;;;;4893007;28;20089;-86
2021/01/30 00:59:42;;;;;;;17.67;6.07;;;-0.30;99.90;;;;;;4884736;28;20089;-86
2021/01/30 01:02:16;;;;;;;9.82;5.07;;;-0.30;99.90;;;;;;4890700;28;20086;-86
2021/01/30 01:04:52;;;;;;;11.35;5.50;;;-0.30;99.90;;;;;;4889154;28;20086;-88
2021/01/30 01:07:49;;;;;;;11.77;5.25;;;-0.30;99.90;;;;;;4885994;28;20499;-88
2021/01/30 01:10:22;;;;;;;11.80;5.72;;;-0.30;99.90;;;;;;4885712;28;20083;-85
2021/01/30 01:12:46;;;;;;;9.70;5.25;;;-0.30;99.90;;;;;;4884003;28;20111;-85
2021/01/30 01:15:17;;;;;;;13.60;5.20;;;-0.40;99.90;;;;;;4887243;28;20104;-87
2021/01/30 01:17:42;;;;;;;12.27;4.93;;;-0.30;99.90;;;;;;4890451;28;20146;-86
2021/01/30 01:20:09;;;;;;;11.18;5.32;;;-0.40;99.90;;;;;;4891345;28;20094;-86
2021/01/30 01:22:32;;;;;;;11.48;4.65;;;-0.40;99.90;;;;;;4873898;28;20084;-86
2021/01/30 01:24:56;;;;;;;11.38;5.20;;;-0.40;99.90;;;;;;4890106;28;20156;-85
2021/01/30 01:27:20;;;;;;;12.02;5.00;;;-0.40;99.90;;;;;;4891365;28;20095;-86
2021/01/30 01:29:44;;;;;;;9.15;4.63;;;-0.40;99.90;;;;;;4889052;28;20531;-86
2021/01/30 01:32:07;;;;;;;10.38;4.70;;;;;;;;;;4888184;28;20092;-86
2021/01/30 01:34:30;;;;;;;10.07;5.28;;;-0.50;99.90;;;;;;4890195;28;20092;-86
2021/01/30 01:37:04;;;;;;;12.98;4.95;;;-0.50;99.90;;;;;;4890518;28;21646;-85
2021/01/30 01:39:30;;;;;;;10.32;5.10;;;-0.50;99.90;;;;;;4885159;28;20092;-87
2021/01/30 01:42:07;;;;;;;12.50;6.30;;;-0.50;99.90;;;;;;4890517;28;20159;-85
2021/01/30 01:44:33;;;;;;;12.10;5.07;;;-0.50;99.90;;;;;;4889836;28;20147;-86
2021/01/30 01:47:05;;;;;;;11.63;4.88;;;-0.50;99.90;;;;;;4890129;28;20099;-86
2021/01/30 01:49:41;;;;;;;14.80;5.28;;;-0.50;99.90;;;;;;4891377;28;20084;-85
2021/01/30 01:52:12;;;;;;;12.60;5.47;;;-0.60;99.90;;;;;;4880499;28;20092;-85
2021/01/30 01:54:37;;;;;;;12.82;4.57;;;-0.60;99.90;;;;;;4890027;28;20097;-87
2021/01/30 01:57:13;;;;;;;;;;;-0.60;99.90;;;;;;4890999;28;20530;-86
2021/01/30 01:59:53;;;;;;;7.75;3.75;;;-0.50;99.90;;;;;;4888585;28;19968;-85
2021/01/30 02:02:16;;;;;;;7.55;3.58;;;-0.50;99.90;;;;;;4885852;28;20095;-86
2021/01/30 02:04:39;;;;;;;8.25;3.60;;;-0.50;99.90;;;;;;4890188;28;20099;-86
2021/01/30 02:07:05;;;;;;;7.18;3.08;;;-0.50;99.90;;;;;;4890201;28;20185;-86
2021/01/30 02:09:39;;;;;;;6.65;3.55;;;-0.50;99.90;;;;;;4891601;28;22244;-87
2021/01/30 02:12:06;;;;;;;9.13;3.08;;;-0.40;99.90;;;;;;4887289;28;20552;-86
2021/01/30 02:14:46;;;;;;;6.93;2.83;;;-0.50;99.90;;;;;;4890882;28;20096;-86
2021/01/30 02:17:21;;;;;;;8.75;3.78;;;-0.50;99.90;;;;;;4882822;28;20114;-86
2021/01/30 02:20:30;;;;;;;7.03;3.13;;;-0.50;99.90;;;;;;4887187;28;24813;-86
2021/01/30 02:23:18;;;;;;;6.28;2.83;;;-0.50;99.90;;;;;;4891511;28;20144;-85
2021/01/30 02:26:32;;;;;;;10.70;3.50;;;-0.50;99.90;;;;;;4891783;28;20526;-86
2021/01/30 02:29:32;;;;;;;4.68;2.70;;;-0.50;99.90;;;;;;4812429;28;20187;-87
2021/01/30 02:32:19;;;;;;;10.55;3.50;;;-0.40;99.90;;;;;;4878809;28;20083;-85
2021/01/30 02:35:05;;;;;;;8.32;3.53;;;-0.50;99.90;;;;;;4890135;28;20091;-87
2021/01/30 02:37:36;;;;;;;8.40;3.47;;;-0.40;99.90;;;;;;4893471;28;20084;-84
2021/01/30 02:40:04;;;;;;;8.60;3.78;;;-0.40;99.90;;;;;;4892057;28;20104;-87
2021/01/30 02:42:30;;;;;;;11.10;4.38;;;-0.40;99.90;;;;;;4893679;28;20102;-87
2021/01/30 02:44:59;;;;;;;8.07;3.72;;;-0.40;99.90;;;;;;4884668;28;20561;-86
2021/01/30 02:47:26;;;;;;;8.88;4.07;;;-0.40;99.90;;;;;;4890309;28;20081;-87
2021/01/30 02:49:55;;;;;;;7.80;3.17;;;-0.40;99.90;;;;;;4893369;28;20102;-86
2021/01/30 02:52:23;;;;;;;8.68;3.47;;;-0.40;99.90;;;;;;4878042;28;20090;-85
2021/01/30 02:54:58;;;;;;;7.15;3.38;;;-0.40;99.90;;;;;;4895578;28;20112;-86
2021/01/30 02:57:25;;;;;;;11.23;3.40;;;-0.40;99.90;;;;;;4886812;28;20510;-85
2021/01/30 03:00:01;;;;;;;8.70;3.83;;;-0.40;99.90;;;;;;4885962;28;20087;-85
2021/01/30 03:02:26;;;;;;;10.48;3.88;;;-1.30;99.90;;;;;;4886053;28;20122;-84
2021/01/30 03:04:51;;;;;;;;;;;-0.30;99.90;;;;;;4891051;28;20544;-85
2021/01/30 03:07:50;;;;;;;5.65;2.60;;;-0.30;99.90;;;;;;4894292;28;20427;-85
2021/01/30 03:10:22;;;;;;;5.72;2.40;;;-0.30;99.90;;;;;;4882105;28;20106;-83
2021/01/30 03:12:53;;;;;;;5.93;2.83;;;-0.30;99.90;;;;;;4893116;28;20108;-85
2021/01/30 03:15:26;;;;;;;5.25;2.47;;;-0.30;99.90;;;;;;4891449;28;20097;-85
2021/01/30 03:17:52;;;;;;;4.28;2.22;;;-0.30;99.90;;;;;;4880250;28;20100;-84
2021/01/30 03:20:17;;;;;;;5.28;2.63;;;-0.30;99.90;;;;;;4884025;28;20097;-84
2021/01/30 03:22:42;;;;;;;5.57;2.78;;;-0.20;99.90;;;;;;4900136;28;20093;-85
2021/01/30 03:25:08;;;;;;;4.30;2.13;;;-0.20;99.90;;;;;;4892021;28;20108;-84
2021/01/30 03:27:40;;;;;;;4.70;2.20;;;-0.20;99.90;;;;;;4892860;28;21038;-85
2021/01/30 03:30:08;;;;;;;3.72;2.00;;;-0.10;99.90;;;;;;4889643;28;20105;-84
2021/01/30 03:32:42;;;;;;;3.63;1.90;;;-0.10;99.90;;;;;;4891911;28;20093;-85
2021/01/30 03:35:08;;;;;;;3.88;1.88;;;-0.10;99.90;;;;;;4889809;28;20089;-84
2021/01/30 03:37:41;;;;;;;5.45;2.20;;;-0.10;99.90;;;;;;4893912;28;20997;-85
2021/01/30 03:40:05;;;;;;;7.15;2.83;;;-0.10;99.90;;;;;;4888560;28;20101;-85
2021/01/30 03:42:28;;;;;;;9.18;2.88;;;-0.10;99.90;;;;;;4884841;28;20092;-84
2021/01/30 03:44:53;;;;;;;6.35;2.47;;;;;;;;;;4889308;28;20500;-83
2021/01/30 03:47:18;;;;;;;6.22;2.53;;;;;;;;;;4893125;28;20092;-85
2021/01/30 03:49:42;;;;;;;8.63;3.13;;;0.00;99.90;;;;;;4888648;28;20093;-84
2021/01/30 03:52:05;;;;;;;5.82;2.50;;;;;;;;;;4883021;28;20093;-83
2021/01/30 03:54:28;;;;;;;4.93;2.25;;;0.00;99.90;;;;;;4892725;28;20146;-84
2021/01/30 03:56:53;;;;;;;4.30;2.13;;;0.00;99.90;;;;;;4896419;28;20104;-85
2021/01/30 03:59:20;;;;;;;7.77;2.23;;;-0.10;99.90;;;;;;4893191;28;20102;-86
2021/01/30 04:01:44;;;;;;;7.47;3.08;;;-0.10;99.90;;;;;;4893416;28;20837;-84
2021/01/30 04:04:06;;;;;;;11.27;2.88;;;-0.10;99.90;;;;;;4892576;28;20096;-85
2021/01/30 04:06:31;;;;;;;14.43;2.47;;;-0.10;99.90;;;;;;4891725;28;20924;-85
2021/01/30 04:08:55;;;;;;;6.25;2.45;;;-0.10;99.90;;;;;;4869244;28;20098;-83
2021/01/30 04:11:22;;;;;;;4.35;2.20;;;-0.10;99.90;;;;;;4896940;28;20089;-84
2021/01/30 04:13:45;;;;;;;7.85;2.20;;;-0.10;99.90;;;;;;4891811;28;20093;-84
2021/01/30 04:16:08;;;;;;;9.07;2.53;;;-0.10;99.90;;;;;;4892377;28;20088;-85
2021/01/30 04:18:32;;;;;;;3.92;1.67;;;-0.10;99.90;;;;;;4892382;28;20456;-85
2021/01/30 04:20:56;;;;;;;5.30;2.15;;;-0.10;99.90;;;;;;4892180;28;20091;-85
2021/01/30 04:23:20;;;;;;;5.20;2.40;;;-0.10;99.90;;;;;;4891915;28;20555;-84
2021/01/30 04:25:43;;;;;;;11.00;2.17;;;-0.10;99.90;;;;;;4883847;28;20090;-85
2021/01/30 04:28:08;;;;;;;5.25;2.30;;;-0.20;99.90;;;;;;4887470;28;20097;-83
2021/01/30 04:30:33;;;;;;;4.75;2.03;;;-0.20;99.90;;;;;;4891840;28;20520;-84
2021/01/30 04:32:59;;;;;;;11.27;2.38;;;-0.20;99.90;;;;;;4889935;28;20514;-84
2021/01/30 04:35:26;;;;;;;7.28;2.28;;;-0.20;99.90;;;;;;4882506;28;20104;-84
2021/01/30 04:37:49;;;;;;;7.13;2.60;;;-0.20;99.90;;;;;;4892772;28;20092;-85
2021/01/30 04:40:22;;;;;;;20.88;3.00;;;-0.20;99.90;;;;;;4892105;28;20093;-85
2021/01/30 04:42:57;;;;;;;10.68;2.85;;;-0.20;99.90;;;;;;4886453;28;20161;-84
2021/01/30 04:45:34;;;;;;;4.43;1.90;;;-0.20;99.90;;;;;;4886922;28;20090;-85
2021/01/30 04:48:06;;;;;;;4.28;1.90;;;-0.20;99.90;;;;;;4886656;28;20085;-85
2021/01/30 04:50:42;;;;;;;10.48;2.30;;;-0.20;99.90;;;;;;4888896;28;20085;-84
2021/01/30 04:53:15;;;;;;;4.80;2.42;;;-0.30;99.90;;;;;;4889142;28;20097;-85
2021/01/30 04:55:53;;;;;;;10.20;2.40;;;-0.30;99.90;;;;;;4886284;28;20096;-84
2021/01/30 04:58:23;;;;;;;8.27;3.15;;;-0.30;99.90;;;;;;4875339;28;20103;-85
2021/01/30 05:01:08;;;;;;;9.63;3.22;;;-0.30;99.90;;;;;;4880761;28;20095;-85
2021/01/30 05:03:42;;;;;;;4.13;1.85;;;-0.40;99.90;;;;;;4879682;28;20176;-85
2021/01/30 05:06:16;;;;;;;7.18;2.58;;;-0.40;99.90;;;;;;4889977;28;20510;-85
2021/01/30 05:08:44;;;;;;;4.95;2.20;;;-0.40;99.90;;;;;;4876229;28;20095;-86
2021/01/30 05:11:14;;;;;;;4.07;1.80;;;-0.40;99.90;;;;;;4888896;28;20094;-86
2021/01/30 05:13:42;;;;;;;4.75;2.10;;;-0.40;99.90;;;;;;4892152;28;20533;-85
2021/01/30 05:16:09;;;;;;;5.30;1.77;;;-0.40;99.90;;;;;;4890571;28;20100;-86
2021/01/30 05:18:33;;;;;;;5.25;2.35;;;-0.40;99.90;;;;;;4892171;28;20469;-86
2021/01/30 05:21:03;;;;;;;4.20;2.08;;;-0.40;99.90;;;;;;4882723;28;20090;-85
2021/01/30 05:23:32;;;;;;;6.35;2.53;;;-0.50;99.90;;;;;;4888567;28;20572;-85
2021/01/30 05:26:07;;;;;;;6.07;2.40;;;-0.50;99.90;;;;;;4891372;28;20089;-85
2021/01/30 05:28:44;;;;;;;5.32;2.50;;;-0.60;99.90;;;;;;4891315;28;20420;-86
2021/01/30 05:31:27;;;;;;;3.80;1.90;;;-0.70;99.90;;;;;;4886899;28;20088;-86
2021/01/30 05:34:10;;;;;;;8.63;1.73;;;-0.80;99.90;;;;;;4887900;28;20103;-86
2021/01/30 05:36:42;;;;;;;2.60;1.27;;;-1.00;99.90;;;;;;4888893;28;20514;-83
2021/01/30 05:39:31;;;;;;;2.53;1.25;;;-1.20;99.90;;;;;;4887173;28;20083;-84
2021/01/30 05:42:08;;;;;;;2.78;1.70;;;-1.30;99.90;;;;;;4888816;28;20152;-86
2021/01/30 05:44:41;;;;;;;2.10;1.40;;;-1.40;99.90;;;;;;4889536;28;21084;-86
2021/01/30 05:47:16;;;;;;;2.63;1.50;;;-1.40;99.90;;;;;;4885841;28;20522;-85
2021/01/30 05:49:53;;;;;;;3.35;1.40;;;-1.50;99.90;;;;;;4887946;28;20202;-85
2021/01/30 05:52:23;;;;;;;5.15;1.55;;;-1.60;99.90;;;;;;4888896;28;20136;-86
2021/01/30 05:54:53;;;;;;;3.88;1.52;;;-1.80;99.90;;;;;;4880120;28;20094;-85
2021/01/30 05:57:18;;;;;;;8.75;1.85;;;-1.80;99.90;;;;;;4889898;28;20526;-86
2021/01/30 05:59:49;;;;;;;3.22;1.45;;;-1.80;99.90;;;;;;4890950;28;20092;-86
2021/01/30 06:02:13;;;;;;;4.53;1.98;;;-1.70;99.90;;;;;;4885335;28;20090;-83
2021/01/30 06:04:38;;;;;;;2.10;1.47;;;-1.70;99.90;;;;;;4890736;28;20581;-85
2021/01/30 06:07:04;;;;;;;5.15;2.30;;;-1.60;99.90;;;;;;4887008;28;20501;-85
2021/01/30 06:09:36;;;;;;;;;;;-1.70;99.90;;;;;;4890729;28;20094;-85
2021/01/30 06:12:02;;;;;;;4.07;1.85;;;-1.70;99.90;;;;;;4890513;28;19971;-85
2021/01/30 06:14:30;;;;;;;6.40;2.15;;;-1.70;99.90;;;;;;4887888;28;20516;-86
2021/01/30 06:17:02;;;;;;;4.20;2.38;;;-1.70;99.90;;;;;;4889642;28;20087;-86
2021/01/30 06:19:26;;;;;;;5.80;1.88;;;-1.70;99.90;;;;;;4888879;28;20146;-86
2021/01/30 06:22:13;;;;;;;2.97;1.65;;;-1.80;99.90;;;;;;4890743;28;20091;-86
2021/01/30 06:24:44;;;;;;;7.30;1.92;;;-1.90;99.90;;;;;;4884026;28;20105;-85
2021/01/30 06:27:12;;;;;;;4.15;1.70;;;-2.10;99.90;;;;;;4890439;28;20097;-85
2021/01/30 06:29:38;;;;;;;3.58;1.48;;;-2.20;99.90;;;;;;4889272;28;20116;-85
2021/01/30 06:32:24;;;;;;;2.30;1.13;;;-2.40;99.90;;;;;;4889468;28;21230;-83
2021/01/30 06:34:53;;;;;;;4.50;1.20;;;-2.60;99.90;;;;;;4887612;28;20095;-85
2021/01/30 06:37:32;;;;;;;3.80;1.48;;;-2.80;99.90;;;;;;4888746;28;20171;-84
2021/01/30 06:40:17;;;;;;;2.95;1.08;;;-3.00;99.90;;;;;;4877653;28;20097;-84
2021/01/30 06:42:44;;;;;;;3.65;1.00;;;-3.10;99.90;;;;;;4876084;28;20127;-83
2021/01/30 06:45:09;;;;;;;2.95;1.20;;;-3.20;99.90;;;;;;4881940;28;20106;-81
2021/01/30 06:47:46;;;;;;;1.98;0.90;;;-3.50;99.90;;;;;;4888372;28;20458;-83
2021/01/30 06:50:18;;;;;;;3.85;1.58;;;-3.80;99.90;;;;;;4887695;28;20092;-81
2021/01/30 06:52:40;;;;;;;2.75;1.08;;;-3.90;99.90;;;;;;4874617;28;20561;-81
2021/01/30 06:55:14;;;;;;;3.28;1.73;;;-4.00;99.90;;;;;;4886178;28;20165;-82
2021/01/30 06:57:38;;;;;;;7.03;2.08;;;-4.10;99.90;;;;;;4885381;28;20179;-81
2021/01/30 07:00:07;;;;;;;9.43;2.33;;;-4.20;99.90;;;;;;4887623;28;20096;-81
2021/01/30 07:02:36;;;;;;;5.57;1.92;;;-4.10;99.90;;;;;;4885308;28;20093;-81
2021/01/30 07:05:23;;;;;;;5.72;2.50;;;-4.20;99.90;;;;;;4878361;28;20140;-80
2021/01/30 07:08:04;;;;;;;3.80;2.08;;;-4.30;99.90;;;;;;4887106;28;20093;-80
2021/01/30 07:10:44;;;;;;;4.05;1.42;;;-4.20;99.90;;;;;;4889428;28;20189;-80
2021/01/30 07:13:30;;;;;;;5.40;2.20;;;-3.70;99.90;;;;;;4888813;28;20091;-79
2021/01/30 07:16:04;;;;;;;4.13;1.67;;;-3.40;99.90;;;;;;4889772;28;20474;-80
2021/01/30 07:18:31;;;;;;;5.15;1.63;;;-3.40;99.90;;;;;;4888780;28;20504;-79
2021/01/30 07:21:19;;;;;;;8.02;2.17;;;-3.40;99.90;;;;;;4890385;28;20092;-80
2021/01/30 07:23:49;;;;;;;7.20;2.30;;;-3.50;99.90;;;;;;4888822;28;20089;-79
2021/01/30 07:26:21;;;;;;;4.65;2.15;;;-3.60;99.90;;;;;;4887413;28;20543;-79
2021/01/30 07:28:50;;;;;;;9.15;2.25;;;-3.70;99.90;;;;;;4887732;28;20440;-80
2021/01/30 07:31:28;;;;;;;4.63;1.85;;;-3.80;99.90;;;;;;4888489;28;20113;-80
2021/01/30 07:33:55;;;;;;;3.75;1.98;;;-3.70;99.90;;;;;;4888735;28;20095;-80
2021/01/30 07:36:25;;;;;;;5.22;2.15;;;-3.80;99.90;;;;;;4889628;28;20094;-80
2021/01/30 07:38:55;;;;;;;6.10;1.83;;;-3.90;99.90;;;;;;4890463;28;20137;-79
2021/01/30 07:41:25;;;;;;;6.00;2.25;;;-3.90;99.90;;;;;;4889208;28;20094;-79
2021/01/30 07:43:55;;;;;;;3.47;1.70;;;-3.90;99.90;;;;;;4890495;28;20753;-79
2021/01/30 07:46:22;;;;;;;6.43;2.70;;;-3.60;99.90;;;;;;4889460;28;20157;-79
2021/01/30 07:48:51;;;;;;;4.63;2.10;;;-3.30;99.90;;;;;;4888796;28;20093;-79
2021/01/30 07:51:19;;;;;;;8.20;2.20;;;-3.10;99.90;;;;;;4889813;28;21115;-78
2021/01/30 07:53:42;;;;;;;4.10;1.70;;;-3.20;99.90;;;;;;4888962;28;20089;-78
2021/01/30 07:56:19;;;;;;;2.50;1.42;;;-3.50;99.90;;;;;;4888194;28;20095;-78
2021/01/30 07:58:57;;;;;;;7.63;1.58;;;-2.20;99.90;;;;;;4876324;28;20180;-78
2021/01/30 08:01:37;;;;;;;2.97;1.52;;;-4.10;99.90;;;;;;4879227;28;20105;-78
2021/01/30 08:04:28;;;;;;;3.03;1.83;;;-4.10;99.90;;;;;;4881034;28;20101;-78
2021/01/30 08:07:08;;;;;;;3.20;1.52;;;-4.40;99.90;;;;;;4873698;28;20091;-79
2021/01/30 08:09:34;;;;;;;4.25;1.55;;;-4.60;99.90;;;;;;4890050;28;20113;-78
2021/01/30 08:12:06;;;;;;;3.85;1.52;;;-4.60;99.90;;;;;;4888436;28;20096;-77
2021/01/30 08:14:50;;;;;;;6.88;2.80;;;-4.60;99.90;;;;;;4885077;28;20090;-78
2021/01/30 08:17:36;;;;;;;5.03;2.33;;;-4.60;99.90;;;;;;4890670;28;21400;-78
2021/01/30 08:20:05;;;;;;;6.25;2.42;;;-4.60;99.90;;;;;;4887127;28;20116;-77
2021/01/30 08:22:35;;;;;;;3.67;1.88;;;-4.70;99.90;;;;;;4884080;28;20098;-79
2021/01/30 08:25:04;;;;;;;6.65;1.80;;;-4.70;99.90;;;;;;4887251;28;20099;-78
2021/01/30 08:27:32;;;;;;;4.03;1.80;;;-4.60;99.90;;;;;;4884006;28;20101;-78
2021/01/30 08:30:02;;;;;;;4.78;2.10;;;-4.70;99.90;;;;;;4887835;28;20114;-77
2021/01/30 08:32:39;;;;;;;2.58;1.30;;;-4.80;99.90;;;;;;4887112;28;20115;-78
2021/01/30 08:35:49;;;;;;;9.82;3.63;;;-4.80;99.90;;;;;;4885399;28;20106;-77
2021/01/30 08:38:34;;;;;;;13.48;4.30;;;-4.80;99.90;;;;;;4888428;28;20204;-77
2021/01/30 08:40:59;;;;;;;10.60;3.83;;;-4.70;99.90;;;;;;4889068;28;20124;-78
2021/01/30 08:43:33;;;;;;;9.30;3.05;;;-4.70;99.90;;;;;;4889630;28;20440;-78
2021/01/30 08:46:27;;;;;;;8.55;3.47;;;-4.50;99.90;;;;;;4888628;28;20136;-78
2021/01/30 08:49:04;;;;;;;6.05;2.53;;;-4.50;99.90;;;;;;4886940;28;20093;-78
2021/01/30 08:51:27;;;;;;;8.00;2.70;;;;;;;;;;4887851;28;20757;-77
2021/01/30 08:53:50;;;;;;;8.48;2.83;;;-4.40;99.90;;;;;;4885446;28;20557;-77
2021/01/30 08:56:48;;;;;;;6.32;2.47;;;-4.30;99.90;;;;;;4887076;28;20111;-78
2021/01/30 08:59:46;;;;;;;6.93;2.90;;;-4.30;99.90;;;;;;4885174;28;20108;-78
2021/01/30 09:02:10;;;;;;;6.82;2.72;;;-4.20;99.90;;;;;;4878816;28;20100;-78
2021/01/30 09:04:59;;;;;;;4.72;2.03;;;-4.20;99.90;;;;;;4887326;28;20176;-78
2021/01/30 09:07:40;;;;;;;4.30;1.92;;;-4.10;99.90;;;;;;4887772;28;20083;-78
2021/01/30 09:10:25;;;;;;;5.90;1.63;;;-4.00;99.90;;;;;;4886090;28;20101;-78
2021/01/30 09:12:54;;;;;;;4.30;1.70;;;-4.00;99.90;;;;;;4873762;28;20178;-78
2021/01/30 09:15:50;;;;;;;4.57;2.13;;;-4.00;99.90;;;;;;4875003;28;20114;-78
2021/01/30 09:18:18;;;;;;;5.80;2.15;;;-4.10;99.90;;;;;;4865594;28;20845;-78
2021/01/30 09:20:53;;;;;;;4.07;1.90;;;-4.10;99.90;;;;;;4858427;28;20095;-78
2021/01/30 09:23:27;;;;;;;8.32;3.47;;;-4.10;99.90;;;;;;4871675;28;20175;-78
2021/01/30 09:26:09;;;;;;;5.20;2.83;;;-4.00;99.90;;;;;;4853338;28;20566;-78
2021/01/30 09:28:33;;;;;;;11.10;2.95;;;-3.70;99.90;;;;;;4858546;28;20092;-78
2021/01/30 09:31:17;;;;;;;6.25;3.13;;;-3.60;99.90;;;;;;4824781;28;20532;-78
2021/01/30 09:34:12;;;;;;;6.32;2.97;;;-3.60;99.90;;;;;;4811170;28;20574;-79
2021/01/30 09:36:43;;;;;;;5.45;2.60;;;-3.50;99.90;;;;;;4820454;28;20098;-78
2021/01/30 09:39:29;;;;;;;6.90;2.40;;;-3.40;99.90;;;;;;4835510;28;20104;-79
2021/01/30 09:42:16;;;;;;;9.20;2.95;;;-3.40;99.90;;;;;;4852327;28;20613;-78
2021/01/30 09:44:48;;;;;;;6.45;2.50;;;-3.30;99.90;;;;;;4835676;28;20100;-78
2021/01/30 09:47:22;;;;;;;11.50;3.28;;;-3.20;99.90;;;;;;4833572;28;20107;-79
2021/01/30 09:50:06;;;;;;;6.18;2.55;;;-3.10;99.90;;;;;;4821116;28;20530;-79
2021/01/30 09:52:37;;;;;;;5.93;2.72;;;-3.00;99.90;;;;;;4828848;28;20134;-79
2021/01/30 09:55:26;;;;;;;4.70;2.28;;;-2.90;99.90;;;;;;4831488;28;20122;-79
2021/01/30 09:57:50;;;;;;;5.25;2.20;;;-2.80;99.90;;;;;;4845724;28;20124;-80
2021/01/30 10:00:29;;;;;;;3.90;1.83;;;-2.80;99.90;;;;;;4840918;28;20112;-79
2021/01/30 10:09:13;;;;;;;7.60;2.63;;;-2.60;99.90;;;;;;4832295;28;20096;-80
2021/01/30 10:11:45;;;;;;;6.28;2.42;;;-2.50;99.90;;;;;;4867912;28;20103;-79
2021/01/30 10:14:47;;;;;;;5.88;2.33;;;-2.50;99.90;;;;;;4832078;28;20099;-79
2021/01/30 10:20:33;;;;;;;3.45;1.90;;;-2.00;99.90;;;;;;4832683;28;20093;-79
2021/01/30 10:23:18;;;;;;;4.43;2.28;;;-1.60;99.90;;;;;;4843895;28;20133;-81
2021/01/30 10:26:46;;;;;;;6.45;2.95;;;-1.40;99.90;;;;;;4829696;28;20094;-81
2021/01/30 10:29:25;;;;;;;10.38;3.50;;;-1.40;99.90;;;;;;4830059;28;20135;-78
2021/01/30 10:32:09;;;;;;;5.35;1.92;;;-1.40;99.90;;;;;;4823377;28;20151;-79
2021/01/30 10:35:02;;;;;;;6.88;2.20;;;-1.50;99.90;;;;;;4819896;28;20174;-79
2021/01/30 10:37:44;;;;;;;6.88;2.05;;;-1.60;99.90;;;;;;4828463;28;20099;-79
2021/01/30 10:40:40;;;;;;;6.82;2.72;;;-1.50;99.90;;;;;;4830060;28;20090;-79
2021/01/30 10:43:37;;;;;;;7.20;2.80;;;-1.50;99.90;;;;;;4832865;28;20091;-79
2021/01/30 10:46:19;;;;;;;;;;;-1.50;99.90;;;;;;4828271;28;20554;-84
2021/01/30 10:49:00;;;;;;;6.55;2.33;;;-1.50;99.90;;;;;;4829256;28;19999;-84
2021/01/30 10:51:37;;;;;;;4.43;2.10;;;-1.60;99.90;;;;;;4844882;28;20102;-85
2021/01/30 10:54:25;;;;;;;5.65;1.83;;;-1.50;99.90;;;;;;4846497;28;20091;-87
2021/01/30 10:57:06;;;;;;;5.43;1.90;;;-1.50;99.90;;;;;;4878655;28;20158;-86
2021/01/30 10:59:30;;;;;;;2.33;1.60;;;;;;;;;;4893255;28;20094;-83
2021/01/30 11:01:54;;;;;;;2.72;1.23;;;-1.60;99.90;;;;;;4890829;28;20093;-84
2021/01/30 11:04:28;;;;;;;3.42;1.42;;;-1.60;99.90;;;;;;4888275;28;20097;-86
2021/01/30 11:07:05;;;;;;;2.60;1.50;;;-1.60;99.90;;;;;;4892499;28;20107;-84
2021/01/30 11:24:25;;;;;;;3.90;1.38;;;-1.40;99.90;;;;;;4892023;28;20089;-84
2021/01/30 11:26:58;;;;;;;1.75;1.02;;;;;;;;;;4892647;28;20106;-85
2021/01/30 11:29:44;;;;;;;1.60;0.93;;;-1.50;99.90;;;;;;4892565;28;21576;-85
2021/01/30 11:32:11;;;;;;;2.63;1.20;;;-1.50;99.90;;;;;;4888794;28;20090;-88
2021/01/30 11:34:46;;;;;;;2.80;1.35;;;-1.40;99.90;;;;;;4893083;28;20087;-85
2021/01/30 11:37:39;;;;;;;3.10;1.42;;;-1.40;99.90;;;;;;4886595;28;20094;-85
2021/01/30 11:40:14;;;;;;;3.00;1.35;;;-1.30;99.90;;;;;;4887894;28;20101;-85
2021/01/30 11:42:38;;;;;;;2.20;1.20;;;-1.40;99.90;;;;;;4887579;28;20098;-85
2021/01/30 11:45:04;;;;;;;2.00;1.25;;;-1.40;99.90;;;;;;4892592;28;20091;-84
2021/01/30 11:47:27;;;;;;;2.05;1.15;;;-1.40;99.90;;;;;;4892045;28;20101;-84
2021/01/30 11:49:54;;;;;;;2.40;1.33;;;-1.50;99.90;;;;;;4892207;28;20094;-84
2021/01/30 11:52:18;;;;;;;2.17;1.20;;;-1.50;99.90;;;;;;4886440;28;20104;-84
2021/01/30 11:54:42;;;;;;;1.40;0.80;;;-1.50;99.90;;;;;;4888315;28;20106;-83
2021/01/30 11:57:14;;;;;;;4.07;1.20;;;-1.30;99.90;;;;;;4891720;28;20103;-84
2021/01/30 11:59:37;;;;;;;2.83;1.45;;;-1.30;99.90;;;;;;4890063;28;20091;-83
2021/01/30 12:02:00;;;;;;;2.67;1.38;;;-1.30;99.90;;;;;;4892196;28;20090;-84
2021/01/30 12:04:29;;;;;;;3.75;1.10;;;-1.30;99.90;;;;;;4892019;28;20099;-84
2021/01/30 12:07:02;;;;;;;4.07;1.35;;;-1.30;99.90;;;;;;4891856;28;20156;-84
2021/01/30 12:09:27;;;;;;;2.80;1.38;;;-1.30;99.90;;;;;;4890109;28;20106;-83
2021/01/30 12:11:50;;;;;;;2.22;1.00;;;-1.40;99.90;;;;;;4891503;28;20140;-81
2021/01/30 12:14:33;;;;;;;2.38;1.27;;;-1.40;99.90;;;;;;4892700;28;20083;-81
2021/01/30 12:17:14;;;;;;;1.98;1.20;;;-1.30;99.90;;;;;;4890982;28;20107;-81
2021/01/30 12:19:46;;;;;;;2.83;1.30;;;-1.20;99.90;;;;;;4883636;28;20197;-81
2021/01/30 12:22:11;;;;;;;1.63;0.93;;;-1.10;99.90;;;;;;4889857;28;20521;-80
2021/01/30 12:24:35;;;;;;;2.67;1.20;;;-0.90;99.90;;;;;;4890827;28;20436;-80
2021/01/30 12:27:07;;;;;;;2.88;1.13;;;-0.60;99.90;;;;;;4892408;28;20090;-80
2021/01/30 12:29:41;;;;;;;2.15;0.93;;;-0.40;99.90;;;;;;4891780;28;20105;-81
2021/01/30 12:32:04;;;;;;;1.05;0.60;;;-0.30;99.90;;;;;;4880501;28;20095;-81
2021/01/30 12:34:28;;;;;;;1.00;0.63;;;-0.30;99.90;;;;;;4891436;28;20594;-80
2021/01/30 12:36:53;;;;;;;1.05;0.50;;;-0.30;99.90;;;;;;4890532;28;20096;-79
2021/01/30 12:39:19;;;;;;;1.40;0.67;;;-0.30;99.90;;;;;;4874425;28;20534;-81
2021/01/30 12:41:41;;;;;;;0.77;0.60;;;-0.10;99.90;;;;;;4890970;28;20177;-80
2021/01/30 12:44:05;;;;;;;1.15;0.82;;;-0.10;99.90;;;;;;4892173;28;20433;-80
2021/01/30 12:46:43;;;;;;;1.33;0.70;;;-0.10;99.90;;;;;;4891979;28;20112;-79
2021/01/30 12:49:06;;;;;;;1.25;0.70;;;-0.10;99.90;;;;;;4889847;28;20095;-79
2021/01/30 12:51:30;;;;;;;2.55;1.00;;;-0.20;99.90;;;;;;4871654;28;20129;-79
2021/01/30 12:53:55;;;;;;;3.97;1.05;;;-0.30;99.90;;;;;;4893982;28;20118;-80
2021/01/30 12:56:30;;;;;;;3.17;0.77;;;-0.20;99.90;;;;;;4891023;28;20437;-80
2021/01/30 12:58:53;;;;;;;1.80;1.00;;;-0.20;99.90;;;;;;4889441;28;20099;-80
2021/01/30 13:01:16;;;;;;;1.60;1.05;;;-0.30;99.90;;;;;;4890955;28;20111;-80
2021/01/30 13:03:46;;;;;;;1.38;0.93;;;-0.30;99.90;;;;;;4882520;28;20097;-81
2021/01/30 13:06:10;;;;;;;2.22;1.23;;;-0.30;99.90;;;;;;4890672;28;24908;-79
2021/01/30 13:08:36;;;;;;;2.10;1.00;;;-0.40;99.90;;;;;;4889244;28;20110;-79
2021/01/30 13:11:00;;;;;;;2.80;1.00;;;-0.40;99.90;;;;;;4886590;28;20093;-80
2021/01/30 13:13:23;;;;;;;3.28;1.60;;;-0.40;99.90;;;;;;4891921;28;20436;-79
2021/01/30 13:15:45;;;;;;;4.55;1.60;;;-0.40;99.90;;;;;;4891201;28;20093;-80
2021/01/30 13:18:09;;;;;;;4.03;1.45;;;-0.40;99.90;;;;;;4890156;28;20547;-80
2021/01/30 13:20:34;;;;;;;4.88;1.95;;;;;;;;;;4882334;28;20104;-80
2021/01/30 13:22:57;;;;;;;3.15;1.50;;;-0.50;99.90;;;;;;4890134;28;20096;-80
2021/01/30 13:25:20;;;;;;;3.03;1.23;;;-0.60;99.90;;;;;;4890371;28;20098;-80
2021/01/30 13:27:48;;;;;;;3.35;1.30;;;-0.60;99.90;;;;;;4892255;28;20573;-81
2021/01/30 13:30:16;;;;;;;1.52;1.02;;;-0.60;99.90;;;;;;4891157;28;20090;-79
2021/01/30 13:32:39;;;;;;;2.08;1.08;;;-0.70;99.90;;;;;;4890333;28;20086;-79
2021/01/30 13:35:04;;;;;;;1.60;0.70;;;-0.70;99.90;;;;;;4887750;28;20105;-78
2021/01/30 13:37:28;;;;;;;1.73;0.98;;;-0.70;99.90;;;;;;4890585;28;20161;-79